createdAt,value
2023-03-05T00:01:39.278Z,75.12
2023-03-05T00:04:10.503Z,75.72
2023-03-05T00:06:37.161Z,76.00
2023-03-05T00:09:05.008Z,75.98
2023-03-05T00:11:33.733Z,76.07
2023-03-05T00:14:03.575Z,75.99
2023-03-05T00:16:30.807Z,76.59
2023-03-05T00:18:58.967Z,76.89
2023-03-05T00:21:29.791Z,76.58
2023-03-05T00:23:57.435Z,76.77
2023-03-05T00:26:26.550Z,77.58
2023-03-05T00:28:55.462Z,77.71
2023-03-05T00:31:25.618Z,78.43
2023-03-05T00:33:57.084Z,78.25
2023-03-05T00:36:25.214Z,78.27
2023-03-05T00:38:52.615Z,78.78
2023-03-05T00:41:19.617Z,78.40
2023-03-05T00:43:46.667Z,78.59
2023-03-05T00:46:13.354Z,78.75
2023-03-05T00:48:39.981Z,79.64
2023-03-05T00:51:06.908Z,79.92
2023-03-05T00:53:33.569Z,80.00
2023-03-05T00:56:00.203Z,79.81
2023-03-05T00:58:27.304Z,79.18
2023-03-05T01:00:57.914Z,79.06
2023-03-05T01:03:24.726Z,78.43
2023-03-05T01:05:51.376Z,76.97
2023-03-05T01:08:18.059Z,76.36
2023-03-05T01:10:44.712Z,76.63
2023-03-05T01:13:11.673Z,76.78
2023-03-05T01:15:38.316Z,76.81
2023-03-05T01:18:05.131Z,76.93
2023-03-05T01:20:31.768Z,76.99
2023-03-05T01:22:59.298Z,76.68
2023-03-05T01:25:26.066Z,75.96
2023-03-05T01:27:52.773Z,76.06
2023-03-05T01:30:20.084Z,76.07
2023-03-05T01:32:46.750Z,76.77
2023-03-05T01:35:24.666Z,76.57
2023-03-05T01:37:52.635Z,75.23
2023-03-05T01:40:24.238Z,74.87
2023-03-05T01:42:58.554Z,74.23
2023-03-05T01:45:25.454Z,73.95
2023-03-05T01:47:52.175Z,74.00
2023-03-05T01:50:23.216Z,74.35
2023-03-05T01:52:59.210Z,74.63
2023-03-05T01:55:29.036Z,73.75
2023-03-05T01:58:03.343Z,73.19
2023-03-05T02:00:35.534Z,73.57
2023-03-05T02:03:05.346Z,74.27
2023-03-05T02:05:35.235Z,74.45
2023-03-05T02:08:05.008Z,75.53
2023-03-05T02:10:38.128Z,74.03
2023-03-05T02:13:14.428Z,74.83
2023-03-05T02:15:42.072Z,74.60
2023-03-05T02:18:09.117Z,74.72
2023-03-05T02:20:46.785Z,75.10
2023-03-05T02:23:13.663Z,75.18
2023-03-05T02:25:40.643Z,75.31
2023-03-05T02:28:25.709Z,76.14
2023-03-05T02:30:52.727Z,77.02
2023-03-05T02:33:20.294Z,77.38
2023-03-05T02:35:47.159Z,79.05
2023-03-05T02:38:15.838Z,78.48
2023-03-05T02:40:42.880Z,78.93
2023-03-05T02:43:10.794Z,78.74
2023-03-05T02:45:38.479Z,78.42
2023-03-05T02:48:05.352Z,78.90
2023-03-05T02:50:33.082Z,79.11
2023-03-05T02:52:59.740Z,79.14
2023-03-05T02:55:26.351Z,79.46
2023-03-05T02:57:53.013Z,79.03
2023-03-05T03:00:19.855Z,79.15
2023-03-05T03:02:46.588Z,78.70
2023-03-05T03:05:13.213Z,78.71
2023-03-05T03:07:39.871Z,78.53
2023-03-05T03:10:07.128Z,78.47
2023-03-05T03:12:40.411Z,78.46
2023-03-05T03:15:08.476Z,77.86
2023-03-05T03:17:36.658Z,77.60
2023-03-05T03:20:10.275Z,77.19
2023-03-05T03:22:37.405Z,77.03
2023-03-05T03:25:04.681Z,77.21
2023-03-05T03:27:31.455Z,77.27
2023-03-05T03:30:02.625Z,76.25
2023-03-05T03:32:29.699Z,76.37
2023-03-05T03:34:56.595Z,76.57
2023-03-05T03:37:23.376Z,75.82
2023-03-05T03:39:50.005Z,76.13
2023-03-05T03:42:21.721Z,75.71
2023-03-05T03:44:49.018Z,74.47
2023-03-05T03:47:15.720Z,75.31
2023-03-05T03:49:42.327Z,75.34
2023-03-05T03:52:09.128Z,75.84
2023-03-05T03:54:35.989Z,75.19
2023-03-05T03:57:03.702Z,74.61
2023-03-05T03:59:30.338Z,74.95
2023-03-05T04:01:56.942Z,75.04
2023-03-05T04:04:23.600Z,75.34
2023-03-05T04:06:50.244Z,75.37
2023-03-05T04:09:16.834Z,75.36
2023-03-05T04:11:43.516Z,75.00
2023-03-05T04:14:10.108Z,74.24
2023-03-05T04:16:36.787Z,74.05
2023-03-05T04:19:03.422Z,74.72
2023-03-05T04:21:30.550Z,74.27
2023-03-05T04:23:57.249Z,74.37
2023-03-05T04:26:23.960Z,75.36
2023-03-05T04:28:50.550Z,75.62
2023-03-05T04:31:17.534Z,77.11
2023-03-05T04:33:44.207Z,77.86
2023-03-05T04:36:10.870Z,78.54
2023-03-05T04:38:37.499Z,78.64
2023-03-05T04:41:04.280Z,78.83
2023-03-05T04:43:30.929Z,79.63
2023-03-05T04:45:57.699Z,80.53
2023-03-05T04:48:24.379Z,80.76
2023-03-05T04:50:51.000Z,81.11
2023-03-05T04:53:17.703Z,81.09
2023-03-05T04:55:44.354Z,82.10
2023-03-05T04:58:11.095Z,82.14
2023-03-05T05:00:37.923Z,82.21
2023-03-05T05:03:04.856Z,82.03
2023-03-05T05:05:31.494Z,81.73
2023-03-05T05:07:58.858Z,81.48
2023-03-05T05:10:26.582Z,81.53
2023-03-05T05:12:53.350Z,81.31
2023-03-05T05:15:20.885Z,81.07
2023-03-05T05:17:47.909Z,81.73
2023-03-05T05:20:16.027Z,81.58
2023-03-05T05:22:44.027Z,81.26
2023-03-05T05:25:10.852Z,81.23
2023-03-05T05:27:39.546Z,81.41
2023-03-05T05:30:07.684Z,81.01
2023-03-05T05:32:34.656Z,80.70
2023-03-05T05:35:01.420Z,81.28
2023-03-05T05:37:28.080Z,81.14
2023-03-05T05:39:54.750Z,80.88
2023-03-05T05:42:23.362Z,80.72
2023-03-05T05:44:50.403Z,80.49
2023-03-05T05:47:18.297Z,80.45
2023-03-05T05:49:45.012Z,80.53
2023-03-05T05:52:11.759Z,80.21
2023-03-05T05:54:38.678Z,80.63
2023-03-05T05:57:05.625Z,80.34
2023-03-05T05:59:32.249Z,80.73
2023-03-05T06:01:59.631Z,80.32
2023-03-05T06:04:26.488Z,79.49
2023-03-05T06:06:53.082Z,79.26
2023-03-05T06:09:19.788Z,79.69
2023-03-05T06:11:46.472Z,79.84
2023-03-05T06:14:13.345Z,79.02
2023-03-05T06:16:40.271Z,78.06
2023-03-05T06:19:06.995Z,78.39
2023-03-05T06:21:34.052Z,78.18
2023-03-05T06:24:01.180Z,78.68
2023-03-05T06:26:28.078Z,77.65
2023-03-05T06:28:55.393Z,78.38
2023-03-05T06:31:27.286Z,78.58
2023-03-05T06:34:02.951Z,79.20
2023-03-05T06:36:30.499Z,77.89
2023-03-05T06:38:57.899Z,78.89
2023-03-05T06:41:30.249Z,79.38
2023-03-05T06:43:58.797Z,79.12
2023-03-05T06:46:28.592Z,78.72
2023-03-05T06:48:57.233Z,79.05
2023-03-05T06:51:27.522Z,77.05
2023-03-05T06:53:55.078Z,76.80
2023-03-05T06:56:22.765Z,77.78
2023-03-05T06:58:51.274Z,78.21
2023-03-05T07:01:19.120Z,77.72
2023-03-05T07:03:49.728Z,77.76
2023-03-05T07:06:16.650Z,76.45
2023-03-05T07:08:44.946Z,76.98
2023-03-05T07:11:13.986Z,77.25
2023-03-05T07:13:41.233Z,77.91
2023-03-05T07:16:10.370Z,76.60
2023-03-05T07:18:37.238Z,77.54
2023-03-05T07:21:08.630Z,76.99
2023-03-05T07:23:36.377Z,77.68
2023-03-05T07:26:07.087Z,75.50
2023-03-05T07:28:34.601Z,76.46
2023-03-05T07:31:04.748Z,76.10
2023-03-05T07:33:32.299Z,77.15
2023-03-05T07:35:59.364Z,76.57
2023-03-05T07:38:26.113Z,76.98
2023-03-05T07:40:52.877Z,77.47
2023-03-05T07:43:19.611Z,78.50
2023-03-05T07:45:46.704Z,78.01
2023-03-05T07:48:17.145Z,78.23
2023-03-05T07:50:44.609Z,78.86
2023-03-05T07:53:11.287Z,79.70
2023-03-05T07:55:45.259Z,79.61
2023-03-05T07:58:13.466Z,79.51
2023-03-05T08:00:40.594Z,79.18
2023-03-05T08:03:07.654Z,78.41
2023-03-05T08:05:34.415Z,79.47
2023-03-05T08:08:01.072Z,79.41
2023-03-05T08:10:27.885Z,79.42
2023-03-05T08:12:54.544Z,79.60
2023-03-05T08:15:21.361Z,79.05
2023-03-05T08:17:48.010Z,78.68
2023-03-05T08:20:14.753Z,78.94
2023-03-05T08:22:43.232Z,78.77
2023-03-05T08:25:10.160Z,78.46
2023-03-05T08:27:42.126Z,78.35
2023-03-05T08:30:13.189Z,76.97
2023-03-05T08:32:39.921Z,77.13
2023-03-05T08:35:07.017Z,77.53
2023-03-05T08:37:33.670Z,76.80
2023-03-05T08:40:00.379Z,76.56
2023-03-05T08:42:27.206Z,77.60
2023-03-05T08:44:53.871Z,77.78
2023-03-05T08:47:20.534Z,77.10
2023-03-05T08:49:47.573Z,77.15
2023-03-05T08:52:14.297Z,74.87
2023-03-05T08:54:41.027Z,76.20
2023-03-05T08:57:08.539Z,76.74
2023-03-05T08:59:35.139Z,76.33
2023-03-05T09:02:02.608Z,75.27
2023-03-05T09:04:29.337Z,75.52
2023-03-05T09:06:57.558Z,74.33
2023-03-05T09:09:24.992Z,76.08
2023-03-05T09:11:52.106Z,76.63
2023-03-05T09:14:18.973Z,76.16
2023-03-05T09:16:45.788Z,76.41
2023-03-05T09:19:15.172Z,76.83
2023-03-05T09:21:42.141Z,77.23
2023-03-05T09:24:08.897Z,76.86
2023-03-05T09:26:35.597Z,77.38
2023-03-05T09:29:02.319Z,78.32
2023-03-05T09:31:29.192Z,77.84
2023-03-05T09:33:55.856Z,77.93
2023-03-05T09:36:29.635Z,78.31
2023-03-05T09:38:56.648Z,79.36
2023-03-05T09:41:34.561Z,79.13
2023-03-05T09:44:22.416Z,78.97
2023-03-05T09:46:57.040Z,79.37
2023-03-05T09:49:45.727Z,79.03
2023-03-05T09:52:23.329Z,79.02
2023-03-05T09:54:56.208Z,79.42
2023-03-05T09:57:45.554Z,80.12
2023-03-05T10:00:35.983Z,81.21
2023-03-05T10:03:10.167Z,81.48
2023-03-05T10:05:58.845Z,83.36
2023-03-05T10:08:32.727Z,83.09
2023-03-05T10:11:06.865Z,83.59
2023-03-05T10:13:39.394Z,84.03
2023-03-05T10:16:30.882Z,84.98
2023-03-05T10:19:09.990Z,84.89
2023-03-05T10:21:50.530Z,84.77
2023-03-05T10:24:52.916Z,84.56
2023-03-05T10:27:26.502Z,83.71
2023-03-05T10:30:08.252Z,83.15
2023-03-05T10:32:40.373Z,83.22
2023-03-05T10:35:19.654Z,82.58
2023-03-05T10:38:05.493Z,80.46
2023-03-05T10:40:48.751Z,77.00
2023-03-05T10:43:43.265Z,76.10
2023-03-05T10:46:16.891Z,75.95
2023-03-05T10:48:50.977Z,74.53
2023-03-05T10:51:28.288Z,74.26
2023-03-05T10:54:18.614Z,71.62
2023-03-05T10:56:45.331Z,72.31
2023-03-05T10:59:11.946Z,70.75
2023-03-05T11:01:38.637Z,72.54
2023-03-05T11:04:08.664Z,70.78
2023-03-05T11:06:37.326Z,70.21
2023-03-05T11:09:18.136Z,70.24
2023-03-05T11:12:01.572Z,70.44
2023-03-05T11:14:31.430Z,69.26
2023-03-05T11:16:58.169Z,71.80
2023-03-05T11:19:33.181Z,71.70
2023-03-05T11:22:10.950Z,69.96
2023-03-05T11:24:38.151Z,69.60
2023-03-05T11:27:50.433Z,70.68
2023-03-05T11:30:26.262Z,71.68
2023-03-05T11:33:16.091Z,71.87
2023-03-05T11:35:44.187Z,73.16
2023-03-05T11:38:24.882Z,74.04
2023-03-05T11:40:55.001Z,74.58
2023-03-05T11:43:24.989Z,73.49
2023-03-05T11:45:55.890Z,74.29
2023-03-05T11:48:28.797Z,74.53
2023-03-05T11:50:59.313Z,74.21
2023-03-05T11:53:29.688Z,76.46
2023-03-05T11:56:03.834Z,77.52
2023-03-05T11:58:43.558Z,79.29
2023-03-05T12:01:17.319Z,79.07
2023-03-05T12:03:44.909Z,79.04
2023-03-05T12:06:23.155Z,79.39
2023-03-05T12:08:54.266Z,79.60
2023-03-05T12:11:26.404Z,80.34
2023-03-05T12:13:57.822Z,80.41
2023-03-05T12:16:41.477Z,82.50
2023-03-05T12:19:32.903Z,81.57
2023-03-05T12:21:59.911Z,80.71
2023-03-05T12:24:28.418Z,80.23
2023-03-05T12:27:04.544Z,79.42
2023-03-05T12:29:51.840Z,78.44
2023-03-05T12:32:34.098Z,77.99
2023-03-05T12:35:49.594Z,76.43
2023-03-05T12:38:34.528Z,76.71
2023-03-05T12:41:23.049Z,75.75
2023-03-05T12:44:07.848Z,76.65
2023-03-05T12:46:44.828Z,76.15
2023-03-05T12:49:20.811Z,76.50
2023-03-05T12:51:49.392Z,76.99
2023-03-05T12:54:30.572Z,77.54
2023-03-05T12:57:00.736Z,76.23
2023-03-05T12:59:42.381Z,76.45
2023-03-05T13:02:23.407Z,77.70
2023-03-05T13:04:53.166Z,76.95
2023-03-05T13:07:19.867Z,78.77
2023-03-05T13:10:07.016Z,79.50
2023-03-05T13:12:36.624Z,79.37
2023-03-05T13:15:09.415Z,78.19
2023-03-05T13:17:51.075Z,78.33
2023-03-05T13:20:33.979Z,78.11
2023-03-05T13:23:09.691Z,77.79
2023-03-05T13:25:36.281Z,77.71
2023-03-05T13:28:11.924Z,78.73
2023-03-05T13:30:38.707Z,78.67
2023-03-05T13:33:06.182Z,78.98
2023-03-05T13:35:33.443Z,78.93
2023-03-05T13:38:00.943Z,77.48
2023-03-05T13:40:32.778Z,77.64
2023-03-05T13:43:12.414Z,77.24
2023-03-05T13:45:40.103Z,77.99
2023-03-05T13:48:07.485Z,77.21
2023-03-05T13:50:39.488Z,79.07
2023-03-05T13:53:25.313Z,79.69
2023-03-05T13:55:58.083Z,79.26
2023-03-05T13:59:03.445Z,79.00
2023-03-05T14:01:33.714Z,78.42
2023-03-05T14:04:19.899Z,77.84
2023-03-05T14:06:49.067Z,78.18
2023-03-05T14:09:41.189Z,77.15
2023-03-05T14:12:21.576Z,77.33
2023-03-05T14:14:48.963Z,76.45
2023-03-05T14:17:37.592Z,77.41
2023-03-05T14:20:23.157Z,77.23
2023-03-05T14:22:55.008Z,76.90
2023-03-05T14:25:40.121Z,76.20
2023-03-05T14:28:17.119Z,77.13
2023-03-05T14:30:48.450Z,76.26
2023-03-05T14:33:26.014Z,76.44
2023-03-05T14:35:53.960Z,75.48
2023-03-05T14:38:26.354Z,76.71
2023-03-05T14:40:53.054Z,76.99
2023-03-05T14:43:19.867Z,77.37
2023-03-05T14:45:47.946Z,77.91
2023-03-05T14:48:18.796Z,78.48
2023-03-05T14:50:57.164Z,77.51
2023-03-05T14:53:40.281Z,78.01
2023-03-05T14:56:17.675Z,79.03
2023-03-05T14:58:44.585Z,78.42
2023-03-05T15:01:14.223Z,77.28
2023-03-05T15:03:41.792Z,77.13
2023-03-05T15:06:27.706Z,77.88
2023-03-05T15:08:54.338Z,77.19
2023-03-05T15:11:22.680Z,78.36
2023-03-05T15:13:52.084Z,78.86
2023-03-05T15:16:19.346Z,79.63
2023-03-05T15:18:46.504Z,78.92
2023-03-05T15:21:13.340Z,79.26
2023-03-05T15:23:40.317Z,78.92
2023-03-05T15:26:09.409Z,78.77
2023-03-05T15:28:38.020Z,79.44
2023-03-05T15:31:06.561Z,78.87
2023-03-05T15:33:33.957Z,79.05
2023-03-05T15:36:01.170Z,79.39
2023-03-05T15:38:28.011Z,79.61
2023-03-05T15:40:54.760Z,79.48
2023-03-05T15:43:21.393Z,79.90
2023-03-05T15:45:48.298Z,79.52
2023-03-05T15:48:35.293Z,79.10
2023-03-05T15:51:02.082Z,79.66
2023-03-05T15:53:28.922Z,78.92
2023-03-05T15:55:58.737Z,79.00
2023-03-05T15:58:25.480Z,78.66
2023-03-05T16:00:52.173Z,79.43
2023-03-05T16:03:19.305Z,79.65
2023-03-05T16:05:46.114Z,79.77
2023-03-05T16:08:13.070Z,80.54
2023-03-05T16:10:41.051Z,81.35
2023-03-05T16:13:13.437Z,81.05
2023-03-05T16:15:41.824Z,81.64
2023-03-05T16:18:12.371Z,82.03
2023-03-05T16:20:39.271Z,81.88
2023-03-05T16:23:06.606Z,82.00
2023-03-05T16:25:33.618Z,81.43
2023-03-05T16:28:00.414Z,81.45
2023-03-05T16:30:27.215Z,82.37
2023-03-05T16:32:54.040Z,82.83
2023-03-05T16:35:21.415Z,82.72
2023-03-05T16:37:48.212Z,83.00
2023-03-05T16:40:15.331Z,82.81
2023-03-05T16:42:42.729Z,82.82
2023-03-05T16:45:11.033Z,82.36
2023-03-05T16:47:38.649Z,82.51
2023-03-05T16:50:06.662Z,83.47
2023-03-05T16:52:33.347Z,83.23
2023-03-05T16:55:00.092Z,83.14
2023-03-05T16:57:28.958Z,83.49
2023-03-05T16:59:57.007Z,82.60
2023-03-05T17:02:23.998Z,82.50
2023-03-05T17:04:50.950Z,81.99
2023-03-05T17:07:18.072Z,82.10
2023-03-05T17:09:44.785Z,82.12
2023-03-05T17:12:11.533Z,82.00
2023-03-05T17:14:38.357Z,82.55
2023-03-05T17:17:04.946Z,82.57
2023-03-05T17:19:32.167Z,82.63
2023-03-05T17:21:58.931Z,82.48
2023-03-05T17:24:26.195Z,82.45
2023-03-05T17:26:52.860Z,82.45
2023-03-05T17:29:20.027Z,82.95
2023-03-05T17:31:49.050Z,82.67
2023-03-05T17:34:16.801Z,83.16
2023-03-05T17:36:45.517Z,84.96
2023-03-05T17:39:13.213Z,85.83
2023-03-05T17:41:40.073Z,86.06
2023-03-05T17:44:07.182Z,85.01
2023-03-05T17:46:33.731Z,85.67
2023-03-05T17:49:00.488Z,84.74
2023-03-05T17:51:27.176Z,85.01
2023-03-05T17:53:53.903Z,84.52
2023-03-05T17:56:22.177Z,84.61
2023-03-05T17:58:49.642Z,85.46
2023-03-05T18:01:31.935Z,84.85
2023-03-05T18:03:59.343Z,84.91
2023-03-05T18:06:26.296Z,85.07
2023-03-05T18:08:53.125Z,85.84
2023-03-05T18:11:19.843Z,85.10
2023-03-05T18:13:46.513Z,85.52
2023-03-05T18:16:16.905Z,85.56
2023-03-05T18:18:44.590Z,85.85
2023-03-05T18:21:11.282Z,86.49
2023-03-05T18:23:38.008Z,86.18
2023-03-05T18:26:04.787Z,86.38
2023-03-05T18:28:31.697Z,87.31
2023-03-05T18:30:58.415Z,86.86
2023-03-05T18:33:25.765Z,86.34
2023-03-05T18:35:53.199Z,87.00
2023-03-05T18:38:24.180Z,86.79
2023-03-05T18:40:52.331Z,86.51
2023-03-05T18:43:21.053Z,87.25
2023-03-05T18:45:53.161Z,87.51
2023-03-05T18:48:20.574Z,87.59
2023-03-05T18:50:51.303Z,87.48
2023-03-05T18:53:18.163Z,87.35
2023-03-05T18:55:45.058Z,87.81
2023-03-05T18:58:15.740Z,87.89
2023-03-05T19:00:43.977Z,88.17
2023-03-05T19:03:11.512Z,88.47
2023-03-05T19:05:39.337Z,88.15
2023-03-05T19:08:07.738Z,88.46
2023-03-05T19:10:34.697Z,89.28
2023-03-05T19:13:30.170Z,89.55
2023-03-05T19:15:56.904Z,89.40
2023-03-05T19:18:25.760Z,89.05
2023-03-05T19:20:56.036Z,89.58
2023-03-05T19:23:22.933Z,89.97
2023-03-05T19:25:49.655Z,90.20
2023-03-05T19:28:16.432Z,90.31
2023-03-05T19:30:43.113Z,89.86
2023-03-05T19:33:09.822Z,89.91
2023-03-05T19:35:36.556Z,90.30
2023-03-05T19:38:03.393Z,90.43
2023-03-05T19:40:30.352Z,90.77
2023-03-05T19:42:58.389Z,90.69
2023-03-05T19:45:25.096Z,90.90
2023-03-05T19:47:53.140Z,91.42
2023-03-05T19:50:20.047Z,91.33
2023-03-05T19:52:46.726Z,91.40
2023-03-05T19:55:13.512Z,91.15
2023-03-05T19:57:40.298Z,91.08
2023-03-05T20:00:07.888Z,90.89
2023-03-05T20:02:34.609Z,91.13
2023-03-05T20:05:01.492Z,92.00
2023-03-05T20:07:28.884Z,91.59
2023-03-05T20:09:55.742Z,91.55
2023-03-05T20:12:23.215Z,91.36
2023-03-05T20:14:50.020Z,91.91
2023-03-05T20:17:16.816Z,91.35
2023-03-05T20:19:43.486Z,91.86
2023-03-05T20:22:10.267Z,91.90
2023-03-05T20:24:37.565Z,91.60
2023-03-05T20:27:04.332Z,91.76
2023-03-05T20:29:31.027Z,91.20
2023-03-05T20:31:57.758Z,91.08
2023-03-05T20:34:24.633Z,91.14
2023-03-05T20:36:51.274Z,91.42
2023-03-05T20:39:18.030Z,91.00
2023-03-05T20:41:44.836Z,90.88
2023-03-05T20:44:11.567Z,91.70
2023-03-05T20:46:45.353Z,92.31
2023-03-05T20:49:11.963Z,91.04
2023-03-05T20:51:39.397Z,90.57
2023-03-05T20:54:10.061Z,90.58
2023-03-05T20:56:37.133Z,90.04
2023-03-05T20:59:07.502Z,90.89
2023-03-05T21:01:36.282Z,91.89
2023-03-05T21:04:03.984Z,91.07
2023-03-05T21:06:31.904Z,91.79
2023-03-05T21:08:59.371Z,91.81
2023-03-05T21:11:26.393Z,92.25
2023-03-05T21:13:53.022Z,92.28
2023-03-05T21:16:23.468Z,92.26
2023-03-05T21:18:51.168Z,92.35
2023-03-05T21:21:18.252Z,92.29
2023-03-05T21:23:45.959Z,92.72
2023-03-05T21:26:13.498Z,92.77
2023-03-05T21:28:40.672Z,93.31
2023-03-05T21:31:10.910Z,92.85
2023-03-05T21:33:37.946Z,93.16
2023-03-05T21:36:05.230Z,93.70
2023-03-05T21:38:34.081Z,93.52
2023-03-05T21:41:02.055Z,93.53
2023-03-05T21:43:31.122Z,93.52
2023-03-05T21:45:59.813Z,92.87
2023-03-05T21:48:26.572Z,92.99
2023-03-05T21:50:54.831Z,92.69
2023-03-05T21:53:22.066Z,92.33
2023-03-05T21:56:10.981Z,91.97
2023-03-05T21:58:37.583Z,92.39
2023-03-05T22:01:04.580Z,92.47
2023-03-05T22:03:31.389Z,93.30
2023-03-05T22:05:58.173Z,93.35
2023-03-05T22:08:25.315Z,94.13
2023-03-05T22:10:52.313Z,93.69
2023-03-05T22:13:22.337Z,93.60
2023-03-05T22:15:51.697Z,93.00
2023-03-05T22:18:19.910Z,93.83
2023-03-05T22:20:54.909Z,93.47
2023-03-05T22:23:24.025Z,93.52
2023-03-05T22:25:57.916Z,93.22
2023-03-05T22:28:25.516Z,93.07
2023-03-05T22:30:56.018Z,92.89
2023-03-05T22:33:23.308Z,93.50
2023-03-05T22:35:50.342Z,94.20
2023-03-05T22:38:18.567Z,94.26
2023-03-05T22:40:47.860Z,93.74
2023-03-05T22:43:15.750Z,93.62
2023-03-05T22:45:42.891Z,94.10
2023-03-05T22:48:10.171Z,93.28
2023-03-05T22:50:42.297Z,92.93
2023-03-05T22:53:09.038Z,93.08
2023-03-05T22:55:42.083Z,93.63
2023-03-05T22:58:08.831Z,93.08
2023-03-05T23:00:35.706Z,92.56
2023-03-05T23:03:02.598Z,91.90
2023-03-05T23:05:34.835Z,91.95
2023-03-05T23:08:01.708Z,92.47
2023-03-05T23:10:29.350Z,92.00
2023-03-05T23:12:58.042Z,91.30
2023-03-05T23:15:28.039Z,91.92
2023-03-05T23:17:54.946Z,91.94
2023-03-05T23:20:24.396Z,91.36
2023-03-05T23:22:56.214Z,91.75
2023-03-05T23:25:25.412Z,91.63
2023-03-05T23:27:54.440Z,92.97
2023-03-05T23:30:27.541Z,92.13
2023-03-05T23:33:04.241Z,93.03
2023-03-05T23:35:43.287Z,93.42
2023-03-05T23:38:13.737Z,93.58
2023-03-05T23:40:43.538Z,93.89
2023-03-05T23:43:10.976Z,93.00
2023-03-05T23:45:38.141Z,93.02
2023-03-05T23:48:04.905Z,92.68
2023-03-05T23:50:35.345Z,92.20
2023-03-05T23:53:04.772Z,91.72
2023-03-05T23:55:33.024Z,91.39
2023-03-05T23:58:00.264Z,91.31
